createdAt,value
2023-05-05T00:00:15.615Z,9.16
2023-05-05T00:02:43.734Z,9.10
2023-05-05T00:05:11.613Z,9.05
2023-05-05T00:07:40.785Z,9.01
2023-05-05T00:10:09.208Z,8.97
2023-05-05T00:12:37.800Z,8.91
2023-05-05T00:15:06.635Z,8.87
2023-05-05T00:17:34.658Z,8.81
2023-05-05T00:20:02.509Z,8.77
2023-05-05T00:22:30.399Z,8.72
2023-05-05T00:24:59.541Z,8.69
2023-05-05T00:27:27.337Z,8.65
2023-05-05T00:29:55.161Z,8.61
2023-05-05T00:32:22.962Z,8.55
2023-05-05T00:34:50.802Z,8.51
2023-05-05T00:37:18.621Z,8.46
2023-05-05T00:39:46.431Z,8.44
2023-05-05T00:42:15.749Z,8.42
2023-05-05T00:44:44.806Z,8.37
2023-05-05T00:47:13.906Z,8.34
2023-05-05T00:49:41.803Z,8.31
2023-05-05T00:52:10.621Z,8.28
2023-05-05T00:54:39.844Z,8.25
2023-05-05T00:57:07.829Z,8.21
2023-05-05T00:59:37.880Z,8.15
2023-05-05T01:02:05.989Z,8.10
2023-05-05T01:04:33.832Z,8.06
2023-05-05T01:07:14.764Z,8.02
2023-05-05T01:10:07.287Z,7.97
2023-05-05T01:12:47.553Z,7.94
2023-05-05T01:15:26.421Z,7.93
2023-05-05T01:18:01.752Z,7.93
2023-05-05T01:20:37.216Z,7.90
2023-05-05T01:23:08.437Z,7.86
2023-05-05T01:26:10.721Z,7.79
2023-05-05T01:29:02.365Z,7.73
2023-05-05T01:31:51.772Z,7.70
2023-05-05T01:34:24.330Z,7.66
2023-05-05T01:36:59.344Z,7.62
2023-05-05T01:39:32.440Z,7.57
2023-05-05T01:42:06.737Z,7.52
2023-05-05T01:44:37.470Z,7.47
2023-05-05T01:47:07.710Z,7.43
2023-05-05T01:49:38.244Z,7.41
2023-05-05T01:52:07.836Z,7.39
2023-05-05T01:54:36.079Z,7.37
2023-05-05T01:57:05.850Z,7.34
2023-05-05T01:59:34.931Z,7.32
2023-05-05T02:02:04.316Z,7.27
2023-05-05T02:04:35.285Z,7.25
2023-05-05T02:07:04.401Z,7.21
2023-05-05T02:09:33.938Z,7.19
2023-05-05T02:12:03.096Z,7.17
2023-05-05T02:14:32.153Z,7.14
2023-05-05T02:17:01.397Z,7.11
2023-05-05T02:19:31.358Z,7.08
2023-05-05T02:22:01.139Z,7.03
2023-05-05T02:24:30.104Z,7.00
2023-05-05T02:27:03.728Z,6.97
2023-05-05T02:29:35.519Z,6.92
2023-05-05T02:32:06.860Z,6.90
2023-05-05T02:34:37.749Z,6.87
2023-05-05T02:37:13.114Z,6.85
2023-05-05T02:39:51.564Z,6.82
2023-05-05T02:42:23.337Z,6.81
2023-05-05T02:44:56.401Z,6.78
2023-05-05T02:47:29.047Z,6.74
2023-05-05T02:49:57.376Z,6.73
2023-05-05T02:52:26.801Z,6.73
2023-05-05T02:54:54.820Z,6.71
2023-05-05T02:57:27.604Z,6.70
2023-05-05T03:00:06.963Z,6.69
2023-05-05T03:02:52.969Z,6.68
2023-05-05T03:05:23.337Z,6.64
2023-05-05T03:07:58.194Z,6.62
2023-05-05T03:10:32.021Z,6.58
2023-05-05T03:13:03.898Z,6.56
2023-05-05T03:15:43.579Z,6.56
2023-05-05T03:18:13.240Z,6.54
2023-05-05T03:20:44.877Z,6.51
2023-05-05T03:23:18.350Z,6.50
2023-05-05T03:25:48.116Z,6.48
2023-05-05T03:28:38.624Z,6.47
2023-05-05T03:31:18.138Z,6.46
2023-05-05T03:33:50.619Z,6.43
2023-05-05T03:36:21.073Z,6.43
2023-05-05T03:38:50.536Z,6.39
2023-05-05T03:41:20.889Z,6.37
2023-05-05T03:43:48.721Z,6.36
2023-05-05T03:46:17.391Z,6.33
2023-05-05T03:48:45.444Z,6.28
2023-05-05T03:51:13.807Z,6.24
2023-05-05T03:53:42.189Z,6.25
2023-05-05T03:56:12.561Z,6.26
2023-05-05T03:58:40.548Z,6.26
2023-05-05T04:01:08.514Z,6.27
2023-05-05T04:03:36.633Z,6.26
2023-05-05T04:06:04.774Z,6.28
2023-05-05T04:08:33.709Z,6.29
2023-05-05T04:11:03.163Z,6.34
2023-05-05T04:13:34.236Z,6.36
2023-05-05T04:16:03.720Z,6.38
2023-05-05T04:18:32.273Z,6.38
2023-05-05T04:21:00.800Z,6.41
2023-05-05T04:23:28.684Z,6.42
2023-05-05T04:25:56.996Z,6.40
2023-05-05T04:28:26.499Z,6.40
2023-05-05T04:30:55.808Z,6.36
2023-05-05T04:33:23.922Z,6.36
2023-05-05T04:35:51.809Z,6.36
2023-05-05T04:38:21.079Z,6.35
2023-05-05T04:40:50.118Z,6.34
2023-05-05T04:43:18.410Z,6.35
2023-05-05T04:45:53.536Z,6.34
2023-05-05T04:48:24.788Z,6.33
2023-05-05T04:50:53.182Z,6.33
2023-05-05T04:53:21.156Z,6.32
2023-05-05T04:55:50.825Z,6.33
2023-05-05T04:58:19.109Z,6.34
2023-05-05T05:00:47.248Z,6.37
2023-05-05T05:03:15.043Z,6.38
2023-05-05T05:05:44.357Z,6.42
2023-05-05T05:08:12.181Z,6.46
2023-05-05T05:10:41.472Z,6.48
2023-05-05T05:13:11.256Z,6.52
2023-05-05T05:15:40.753Z,6.56
2023-05-05T05:18:08.770Z,6.59
2023-05-05T05:20:36.625Z,6.63
2023-05-05T05:23:05.925Z,6.70
2023-05-05T05:25:37.806Z,6.78
2023-05-05T05:28:09.459Z,6.83
2023-05-05T05:30:42.611Z,6.89
2023-05-05T05:33:12.040Z,6.97
2023-05-05T05:35:40.815Z,7.04
2023-05-05T05:38:10.705Z,7.11
2023-05-05T05:40:38.585Z,7.17
2023-05-05T05:43:06.940Z,7.25
2023-05-05T05:45:36.472Z,7.33
2023-05-05T05:48:06.479Z,7.41
2023-05-05T05:53:04.018Z,7.58
2023-05-05T05:55:33.590Z,7.68
2023-05-05T05:58:02.399Z,7.76
2023-05-05T06:00:30.991Z,7.85
2023-05-05T06:03:05.415Z,7.95
2023-05-05T06:05:36.837Z,8.05
2023-05-05T06:08:05.026Z,8.15
2023-05-05T06:10:38.160Z,8.29
2023-05-05T06:13:10.495Z,8.45
2023-05-05T06:15:42.477Z,8.62
2023-05-05T06:18:12.475Z,8.79
2023-05-05T06:20:40.346Z,8.96
2023-05-05T06:23:08.671Z,9.12
2023-05-05T06:25:41.987Z,9.31
2023-05-05T06:28:09.879Z,9.46
2023-05-05T06:30:37.810Z,9.62
2023-05-05T06:33:05.735Z,9.78
2023-05-05T06:35:33.562Z,9.96
2023-05-05T06:38:01.390Z,10.16
2023-05-05T06:40:29.269Z,10.36
2023-05-05T06:42:58.423Z,10.57
2023-05-05T06:45:31.165Z,10.72
2023-05-05T06:47:59.063Z,10.84
2023-05-05T06:50:27.042Z,10.98
2023-05-05T06:52:54.826Z,11.12
2023-05-05T06:55:23.407Z,11.22
2023-05-05T06:57:51.339Z,11.32
2023-05-05T07:00:22.141Z,11.41
2023-05-05T07:02:49.999Z,11.51
2023-05-05T07:05:17.876Z,11.62
2023-05-05T07:07:52.633Z,11.72
2023-05-05T07:10:20.578Z,11.83
2023-05-05T07:12:48.490Z,12.01
2023-05-05T07:15:26.801Z,12.22
2023-05-05T07:17:58.055Z,12.40
2023-05-05T07:20:26.780Z,12.53
2023-05-05T07:22:54.769Z,12.63
2023-05-05T07:25:22.822Z,12.70
2023-05-05T07:27:51.118Z,12.81
2023-05-05T07:30:19.666Z,12.94
2023-05-05T07:32:47.952Z,13.06
2023-05-05T07:35:17.378Z,13.21
2023-05-05T07:37:45.580Z,13.35
2023-05-05T07:40:14.084Z,13.48
2023-05-05T07:42:42.092Z,13.66
2023-05-05T07:45:10.454Z,13.78
2023-05-05T07:47:38.380Z,13.92
2023-05-05T07:50:07.957Z,14.06
2023-05-05T07:52:45.353Z,14.22
2023-05-05T07:55:17.791Z,14.36
2023-05-05T07:57:45.746Z,14.51
2023-05-05T08:00:14.844Z,14.62
2023-05-05T08:02:44.023Z,14.75
2023-05-05T08:05:12.851Z,14.89
2023-05-05T08:07:42.076Z,15.06
2023-05-05T08:10:11.896Z,15.24
2023-05-05T08:12:40.027Z,15.43
2023-05-05T08:15:09.096Z,15.62
2023-05-05T08:17:47.990Z,15.88
2023-05-05T08:20:16.028Z,16.06
2023-05-05T08:22:45.322Z,16.18
2023-05-05T08:25:13.857Z,16.33
2023-05-05T08:27:42.679Z,16.48
2023-05-05T08:30:11.843Z,16.56
2023-05-05T08:32:39.753Z,16.71
2023-05-05T08:35:08.526Z,16.89
2023-05-05T08:37:36.651Z,17.09
2023-05-05T08:40:06.673Z,17.24
2023-05-05T08:42:38.806Z,17.44
2023-05-05T08:45:09.020Z,17.64
2023-05-05T08:47:38.756Z,17.74
2023-05-05T08:50:11.001Z,17.78
2023-05-05T08:52:41.368Z,17.77
2023-05-05T08:55:25.621Z,17.73
2023-05-05T08:57:56.495Z,17.68
2023-05-05T09:00:26.465Z,17.64
2023-05-05T09:02:57.076Z,17.58
2023-05-05T09:05:24.955Z,17.57
2023-05-05T09:07:53.180Z,17.59
2023-05-05T09:10:22.475Z,17.59
2023-05-05T09:12:51.627Z,17.62
2023-05-05T09:15:19.612Z,17.63
2023-05-05T09:17:48.215Z,17.65
2023-05-05T09:20:16.370Z,17.69
2023-05-05T09:22:45.557Z,17.71
2023-05-05T09:25:14.980Z,17.73
2023-05-05T09:27:46.791Z,17.71
2023-05-05T09:30:16.547Z,17.73
2023-05-05T09:32:46.218Z,17.74
2023-05-05T09:35:14.198Z,17.74
2023-05-05T09:37:42.322Z,17.71
2023-05-05T09:40:11.265Z,17.66
2023-05-05T09:42:40.222Z,17.51
2023-05-05T09:45:27.442Z,17.42
2023-05-05T09:47:59.570Z,17.41
2023-05-05T09:50:30.683Z,17.43
2023-05-05T09:53:00.853Z,17.45
2023-05-05T09:55:29.021Z,17.50
2023-05-05T09:57:56.860Z,17.51
2023-05-05T10:00:39.151Z,17.53
2023-05-05T10:03:07.229Z,17.52
2023-05-05T10:05:48.571Z,17.49
2023-05-05T10:08:17.625Z,17.43
2023-05-05T10:10:51.529Z,17.39
2023-05-05T10:13:20.907Z,17.39
2023-05-05T10:15:52.077Z,17.35
2023-05-05T10:18:25.043Z,17.35
2023-05-05T10:20:59.268Z,17.35
2023-05-05T10:23:34.225Z,17.36
2023-05-05T10:26:04.304Z,17.36
2023-05-05T10:28:34.772Z,17.32
2023-05-05T10:31:16.502Z,17.26
2023-05-05T10:33:55.499Z,17.22
2023-05-05T10:36:24.450Z,17.20
2023-05-05T10:38:56.223Z,17.16
2023-05-05T10:41:25.309Z,17.13
2023-05-05T10:43:56.226Z,17.15
2023-05-05T10:46:26.768Z,17.24
2023-05-05T10:49:00.931Z,17.36
2023-05-05T10:51:41.486Z,17.48
2023-05-05T10:54:17.836Z,17.57
2023-05-05T10:56:48.194Z,17.67
2023-05-05T10:59:41.871Z,17.86
2023-05-05T11:02:24.650Z,18.09
2023-05-05T11:05:09.348Z,18.31
2023-05-05T11:07:37.524Z,18.44
2023-05-05T11:10:06.984Z,18.49
2023-05-05T11:13:13.504Z,18.60
2023-05-05T11:15:41.579Z,18.70
2023-05-05T11:18:30.560Z,18.83
2023-05-05T11:21:18.210Z,18.91
2023-05-05T11:23:47.823Z,18.97
2023-05-05T11:26:17.326Z,19.03
2023-05-05T11:29:00.322Z,19.13
2023-05-05T11:31:28.870Z,19.25
2023-05-05T11:34:31.055Z,19.39
2023-05-05T11:37:03.056Z,19.53
2023-05-05T11:39:41.742Z,19.65
2023-05-05T11:42:25.766Z,19.70
2023-05-05T11:44:54.740Z,19.79
2023-05-05T11:47:34.551Z,19.87
2023-05-05T11:50:21.699Z,19.96
2023-05-05T11:52:50.037Z,20.00
2023-05-05T11:55:22.954Z,19.97
2023-05-05T11:57:51.092Z,19.96
2023-05-05T12:00:19.900Z,19.98
2023-05-05T12:02:48.163Z,19.98
2023-05-05T12:05:22.085Z,20.08
2023-05-05T12:07:56.824Z,20.15
2023-05-05T12:10:24.932Z,20.23
2023-05-05T12:12:55.496Z,20.26
2023-05-05T12:15:31.523Z,20.28
2023-05-05T12:18:01.607Z,20.36
2023-05-05T12:20:33.759Z,20.45
2023-05-05T12:23:05.006Z,20.56
2023-05-05T12:25:38.111Z,20.70
2023-05-05T12:28:07.488Z,20.88
2023-05-05T12:30:35.786Z,21.06
2023-05-05T12:33:04.561Z,21.13
2023-05-05T12:35:34.465Z,21.17
2023-05-05T12:38:02.337Z,21.22
2023-05-05T12:40:47.213Z,21.41
2023-05-05T12:43:26.603Z,21.51
2023-05-05T12:46:05.619Z,21.54
2023-05-05T12:48:33.803Z,21.51
2023-05-05T12:51:20.354Z,21.38
2023-05-05T12:53:49.437Z,21.22
2023-05-05T12:56:48.201Z,21.03
2023-05-05T12:59:30.711Z,20.91
2023-05-05T13:01:59.947Z,20.84
2023-05-05T13:04:29.310Z,20.78
2023-05-05T13:07:12.750Z,20.69
2023-05-05T13:09:40.698Z,20.63
2023-05-05T13:12:11.871Z,20.57
2023-05-05T13:14:40.653Z,20.43
2023-05-05T13:17:08.858Z,20.38
2023-05-05T13:19:41.870Z,20.33
2023-05-05T13:22:11.176Z,20.26
2023-05-05T13:24:50.591Z,20.18
2023-05-05T13:27:19.199Z,20.12
2023-05-05T13:29:47.064Z,20.01
2023-05-05T13:32:14.860Z,19.93
2023-05-05T13:34:44.074Z,19.86
2023-05-05T13:37:13.286Z,19.81
2023-05-05T13:39:41.104Z,19.72
2023-05-05T13:42:09.094Z,19.66
2023-05-05T13:44:36.926Z,19.60
2023-05-05T13:47:04.921Z,19.55
2023-05-05T13:49:32.749Z,19.45
2023-05-05T13:52:00.575Z,19.33
2023-05-05T13:54:29.734Z,19.21
2023-05-05T13:56:57.850Z,19.08
2023-05-05T13:59:26.308Z,18.93
2023-05-05T14:01:54.149Z,18.80
2023-05-05T14:04:21.962Z,18.64
2023-05-05T14:06:49.856Z,18.42
2023-05-05T14:09:17.695Z,18.20
2023-05-05T14:11:46.819Z,17.93
2023-05-05T14:14:14.620Z,17.69
2023-05-05T14:16:42.432Z,17.38
2023-05-05T14:19:10.343Z,17.18
2023-05-05T14:21:38.154Z,17.06
2023-05-05T14:24:06.505Z,16.95
2023-05-05T14:26:34.376Z,16.83
2023-05-05T14:29:03.943Z,16.75
2023-05-05T14:31:31.795Z,16.64
2023-05-05T14:33:59.645Z,16.58
2023-05-05T14:36:27.443Z,16.56
2023-05-05T14:38:55.442Z,16.56
2023-05-05T14:41:23.581Z,16.60
2023-05-05T14:43:51.396Z,16.65
2023-05-05T14:46:20.646Z,16.76
2023-05-05T14:48:48.543Z,16.89
2023-05-05T14:51:16.799Z,17.03
2023-05-05T14:53:44.661Z,17.12
2023-05-05T14:56:12.605Z,17.21
2023-05-05T14:58:40.582Z,17.33
2023-05-05T15:01:08.404Z,17.43
2023-05-05T15:03:37.795Z,17.51
2023-05-05T15:06:05.877Z,17.64
2023-05-05T15:08:33.746Z,17.66
2023-05-05T15:11:01.689Z,17.74
2023-05-05T15:13:29.744Z,17.74
2023-05-05T15:15:57.662Z,17.71
2023-05-05T15:18:25.675Z,17.73
2023-05-05T15:20:54.792Z,17.73
2023-05-05T15:23:22.681Z,17.67
2023-05-05T15:25:50.527Z,17.64
2023-05-05T15:28:18.681Z,17.55
2023-05-05T15:30:46.521Z,17.43
2023-05-05T15:33:14.375Z,17.29
2023-05-05T15:35:42.185Z,17.18
2023-05-05T15:38:11.438Z,17.14
2023-05-05T15:40:39.231Z,17.09
2023-05-05T15:43:07.061Z,17.03
2023-05-05T15:45:35.115Z,16.95
2023-05-05T15:48:02.985Z,16.90
2023-05-05T15:50:30.973Z,16.79
2023-05-05T15:52:59.033Z,16.74
2023-05-05T15:55:28.968Z,16.71
2023-05-05T15:57:56.766Z,16.69
2023-05-05T16:00:25.744Z,16.67
2023-05-05T16:02:53.759Z,16.63
2023-05-05T16:05:23.090Z,16.58
2023-05-05T16:07:52.442Z,16.53
2023-05-05T16:10:20.548Z,16.43
2023-05-05T16:12:50.009Z,16.35
2023-05-05T16:15:17.872Z,16.30
2023-05-05T16:17:45.813Z,16.27
2023-05-05T16:20:14.062Z,16.20
2023-05-05T16:22:41.859Z,16.17
2023-05-05T16:25:12.357Z,16.14
2023-05-05T16:27:40.158Z,16.06
2023-05-05T16:30:12.738Z,15.98
2023-05-05T16:32:40.593Z,15.90
2023-05-05T16:35:09.232Z,15.82
2023-05-05T16:37:37.296Z,15.72
2023-05-05T16:40:06.699Z,15.65
2023-05-05T16:42:34.537Z,15.61
2023-05-05T16:45:02.347Z,15.56
2023-05-05T16:47:34.745Z,15.51
2023-05-05T16:50:02.395Z,15.45
2023-05-05T16:52:30.189Z,15.40
2023-05-05T16:54:57.987Z,15.34
2023-05-05T16:57:25.855Z,15.28
2023-05-05T16:59:56.288Z,15.21
2023-05-05T17:02:24.182Z,15.14
2023-05-05T17:04:53.435Z,15.07
2023-05-05T17:07:21.356Z,15.00
2023-05-05T17:09:49.232Z,14.94
2023-05-05T17:12:17.042Z,14.84
2023-05-05T17:14:45.340Z,14.76
2023-05-05T17:17:13.226Z,14.74
2023-05-05T17:19:42.529Z,14.71
2023-05-05T17:22:11.680Z,14.70
2023-05-05T17:24:39.501Z,14.70
2023-05-05T17:27:07.364Z,14.70
2023-05-05T17:29:40.695Z,14.68
2023-05-05T17:32:08.769Z,14.67
2023-05-05T17:34:36.718Z,14.60
2023-05-05T17:37:04.728Z,14.54
2023-05-05T17:39:33.862Z,14.51
2023-05-05T17:42:01.708Z,14.46
2023-05-05T17:44:31.391Z,14.41
2023-05-05T17:46:59.288Z,14.37
2023-05-05T17:49:27.075Z,14.34
2023-05-05T17:51:54.890Z,14.30
2023-05-05T17:54:22.718Z,14.28
2023-05-05T17:56:51.906Z,14.29
2023-05-05T17:59:19.690Z,14.31
2023-05-05T18:01:47.573Z,14.31
2023-05-05T18:04:15.880Z,14.33
2023-05-05T18:06:43.674Z,14.35
2023-05-05T18:09:12.029Z,14.34
2023-05-05T18:11:39.851Z,14.35
2023-05-05T18:14:10.677Z,14.37
2023-05-05T18:16:38.491Z,14.37
2023-05-05T18:19:06.354Z,14.33
2023-05-05T18:21:34.191Z,14.29
2023-05-05T18:24:15.788Z,14.28
2023-05-05T18:26:48.927Z,14.28
2023-05-05T18:29:18.239Z,14.27
2023-05-05T18:31:50.848Z,14.24
2023-05-05T18:34:19.362Z,14.23
2023-05-05T18:36:47.746Z,14.22
2023-05-05T18:39:15.683Z,14.20
2023-05-05T18:41:43.622Z,14.19
2023-05-05T18:44:11.625Z,14.17
2023-05-05T18:46:41.272Z,14.16
2023-05-05T18:49:09.123Z,14.13
2023-05-05T18:51:37.223Z,14.10
2023-05-05T18:54:05.404Z,14.07
2023-05-05T18:56:33.378Z,14.03
2023-05-05T18:59:01.164Z,14.01
2023-05-05T19:01:29.040Z,14.00
2023-05-05T19:03:58.231Z,13.97
2023-05-05T19:06:26.126Z,13.96
2023-05-05T19:08:53.983Z,13.94
2023-05-05T19:11:21.931Z,13.93
2023-05-05T19:13:49.770Z,13.91
2023-05-05T19:16:17.956Z,13.90
2023-05-05T19:18:45.937Z,13.88
2023-05-05T19:21:15.170Z,13.87
2023-05-05T19:23:42.989Z,13.86
2023-05-05T19:26:11.536Z,13.83
2023-05-05T19:28:39.493Z,13.81
2023-05-05T19:31:07.346Z,13.80
2023-05-05T19:33:36.469Z,13.77
2023-05-05T19:36:04.575Z,13.75
2023-05-05T19:38:33.761Z,13.72
2023-05-05T19:41:01.598Z,13.71
2023-05-05T19:43:29.484Z,13.69
2023-05-05T19:45:57.320Z,13.65
2023-05-05T19:48:25.478Z,13.63
2023-05-05T19:50:53.373Z,13.60
2023-05-05T19:53:21.209Z,13.55
2023-05-05T19:55:50.599Z,13.55
2023-05-05T19:58:18.899Z,13.52
2023-05-05T20:00:46.698Z,13.48
2023-05-05T20:03:14.762Z,13.47
2023-05-05T20:05:42.630Z,13.44
2023-05-05T20:08:10.709Z,13.42
2023-05-05T20:10:38.568Z,13.39
2023-05-05T20:13:07.813Z,13.36
2023-05-05T20:15:35.714Z,13.35
2023-05-05T20:18:03.906Z,13.35
2023-05-05T20:20:31.857Z,13.34
2023-05-05T20:22:59.734Z,13.34
2023-05-05T20:25:27.750Z,13.34
2023-05-05T20:27:55.578Z,13.28
2023-05-05T20:30:24.772Z,13.25
2023-05-05T20:32:53.528Z,13.24
2023-05-05T20:35:21.499Z,13.22
2023-05-05T20:37:49.349Z,13.20
2023-05-05T20:40:17.199Z,13.18
2023-05-05T20:42:45.099Z,13.18
2023-05-05T20:45:13.071Z,13.17
2023-05-05T20:47:42.431Z,13.18
2023-05-05T20:50:11.359Z,13.18
2023-05-05T20:52:39.420Z,13.19
2023-05-05T20:55:07.923Z,13.20
2023-05-05T20:57:35.759Z,13.18
2023-05-05T21:00:04.159Z,13.17
2023-05-05T21:02:32.500Z,13.16
2023-05-05T21:05:03.138Z,13.17
2023-05-05T21:07:33.122Z,13.16
2023-05-05T21:10:01.287Z,13.16
2023-05-05T21:12:29.958Z,13.15
2023-05-05T21:14:58.741Z,13.14
2023-05-05T21:17:26.834Z,13.14
2023-05-05T21:19:54.968Z,13.15
2023-05-05T21:22:24.474Z,13.14
2023-05-05T21:24:52.263Z,13.13
2023-05-05T21:27:20.275Z,13.11
2023-05-05T21:29:48.146Z,13.10
2023-05-05T21:32:15.938Z,13.09
2023-05-05T21:34:43.781Z,13.08
2023-05-05T21:37:12.139Z,13.06
2023-05-05T21:39:41.695Z,13.05
2023-05-05T21:42:09.638Z,13.00
2023-05-05T21:44:37.420Z,13.00
2023-05-05T21:47:06.238Z,12.98
2023-05-05T21:49:34.031Z,12.97
2023-05-05T21:52:01.875Z,12.96
2023-05-05T21:54:30.709Z,12.94
2023-05-05T21:57:00.190Z,12.95
2023-05-05T21:59:28.055Z,12.93
2023-05-05T22:01:56.052Z,12.90
2023-05-05T22:06:36.025Z,12.86
2023-05-05T22:09:03.860Z,12.84
2023-05-05T22:11:31.714Z,12.83
2023-05-05T22:13:59.581Z,12.80
2023-05-05T22:16:27.417Z,12.78
2023-05-05T22:18:55.230Z,12.76
2023-05-05T22:21:23.050Z,12.73
2023-05-05T22:23:52.285Z,12.71
2023-05-05T22:26:20.217Z,12.71
2023-05-05T22:28:48.024Z,12.70
2023-05-05T22:31:15.818Z,12.68
2023-05-05T22:33:43.656Z,12.65
2023-05-05T22:36:11.536Z,12.62
2023-05-05T22:38:39.403Z,12.59
2023-05-05T22:41:08.720Z,12.56
2023-05-05T22:43:37.006Z,12.53
2023-05-05T22:46:04.905Z,12.50
2023-05-05T22:48:32.666Z,12.44
2023-05-05T22:51:00.495Z,12.41
2023-05-05T22:53:28.316Z,12.39
2023-05-05T22:55:58.252Z,12.35
2023-05-05T22:58:27.796Z,12.32
2023-05-05T23:00:55.615Z,12.28
2023-05-05T23:03:23.381Z,12.22
2023-05-05T23:05:51.192Z,12.16
2023-05-05T23:08:20.273Z,12.12
2023-05-05T23:10:48.190Z,12.09
2023-05-05T23:13:16.216Z,12.07
2023-05-05T23:15:45.565Z,12.04
2023-05-05T23:18:13.357Z,12.01
2023-05-05T23:20:41.165Z,11.97
2023-05-05T23:23:08.941Z,11.95
2023-05-05T23:25:36.769Z,11.91
2023-05-05T23:28:04.829Z,11.88
2023-05-05T23:30:32.628Z,11.83
2023-05-05T23:33:01.957Z,11.81
2023-05-05T23:35:29.777Z,11.77
2023-05-05T23:37:57.528Z,11.73
2023-05-05T23:40:25.404Z,11.72
2023-05-05T23:42:53.199Z,11.70
2023-05-05T23:45:20.959Z,11.68
2023-05-05T23:47:48.862Z,11.65
2023-05-05T23:50:18.050Z,11.60
2023-05-05T23:52:45.854Z,11.58
2023-05-05T23:55:14.415Z,11.56
2023-05-05T23:57:42.222Z,11.55
